sensor_id;sensor_type;location;lat;lon;timestamp;temperature;humidity
41644;DHT22;44236;48.098;11.582;2024-03-02T00:02:01;20.90;46.40
41644;DHT22;44236;48.098;11.582;2024-03-02T00:04:26;20.60;46.40
41644;DHT22;44236;48.098;11.582;2024-03-02T00:06:53;21.00;54.10
41644;DHT22;44236;48.098;11.582;2024-03-02T00:09:21;20.90;59.40
41644;DHT22;44236;48.098;11.582;2024-03-02T00:11:47;20.80;48.70
41644;DHT22;44236;48.098;11.582;2024-03-02T00:14:13;20.90;47.40
41644;DHT22;44236;48.098;11.582;2024-03-02T00:16:38;20.90;49.00
41644;DHT22;44236;48.098;11.582;2024-03-02T00:21:32;20.70;60.70
41644;DHT22;44236;48.098;11.582;2024-03-02T00:23:59;20.70;48.90
41644;DHT22;44236;48.098;11.582;2024-03-02T00:26:25;20.80;69.00
41644;DHT22;44236;48.098;11.582;2024-03-02T00:28:54;20.60;66.00
41644;DHT22;44236;48.098;11.582;2024-03-02T00:31:22;20.50;52.90
41644;DHT22;44236;48.098;11.582;2024-03-02T00:33:48;20.50;51.30
41644;DHT22;44236;48.098;11.582;2024-03-02T00:36:24;20.50;49.10
41644;DHT22;44236;48.098;11.582;2024-03-02T00:38:51;20.50;59.60
41644;DHT22;44236;48.098;11.582;2024-03-02T00:41:27;20.40;48.70
41644;DHT22;44236;48.098;11.582;2024-03-02T00:44:04;20.30;47.80
41644;DHT22;44236;48.098;11.582;2024-03-02T00:46:36;20.30;48.40
41644;DHT22;44236;48.098;11.582;2024-03-02T00:49:03;20.30;50.50
41644;DHT22;44236;48.098;11.582;2024-03-02T00:51:31;20.00;51.90
41644;DHT22;44236;48.098;11.582;2024-03-02T00:53:59;20.30;52.80
41644;DHT22;44236;48.098;11.582;2024-03-02T00:56:25;20.30;74.10
41644;DHT22;44236;48.098;11.582;2024-03-02T00:58:52;20.30;54.20
41644;DHT22;44236;48.098;11.582;2024-03-02T01:01:18;20.20;55.60
41644;DHT22;44236;48.098;11.582;2024-03-02T01:06:11;20.20;56.00
41644;DHT22;44236;48.098;11.582;2024-03-02T01:08:38;20.20;52.50
41644;DHT22;44236;48.098;11.582;2024-03-02T01:11:04;20.10;49.70
41644;DHT22;44236;48.098;11.582;2024-03-02T01:13:30;20.20;49.80
41644;DHT22;44236;48.098;11.582;2024-03-02T01:15:56;20.10;50.50
41644;DHT22;44236;48.098;11.582;2024-03-02T01:18:22;19.90;48.00
41644;DHT22;44236;48.098;11.582;2024-03-02T01:20:48;20.00;49.40
41644;DHT22;44236;48.098;11.582;2024-03-02T01:23:13;19.90;47.70
41644;DHT22;44236;48.098;11.582;2024-03-02T01:25:39;19.90;47.70
41644;DHT22;44236;48.098;11.582;2024-03-02T01:28:05;19.80;47.70
41644;DHT22;44236;48.098;11.582;2024-03-02T01:30:31;19.80;47.60
41644;DHT22;44236;48.098;11.582;2024-03-02T01:32:56;19.80;47.70
41644;DHT22;44236;48.098;11.582;2024-03-02T01:35:24;19.80;47.40
41644;DHT22;44236;48.098;11.582;2024-03-02T01:37:49;19.80;47.70
41644;DHT22;44236;48.098;11.582;2024-03-02T01:40:15;19.80;62.70
41644;DHT22;44236;48.098;11.582;2024-03-02T01:42:41;19.80;51.00
41644;DHT22;44236;48.098;11.582;2024-03-02T01:45:08;19.90;60.70
41644;DHT22;44236;48.098;11.582;2024-03-02T01:47:35;19.80;52.90
41644;DHT22;44236;48.098;11.582;2024-03-02T01:50:00;19.80;52.50
41644;DHT22;44236;48.098;11.582;2024-03-02T01:52:27;19.80;50.00
41644;DHT22;44236;48.098;11.582;2024-03-02T01:54:53;19.80;58.20
41644;DHT22;44236;48.098;11.582;2024-03-02T01:57:19;19.70;79.30
41644;DHT22;44236;48.098;11.582;2024-03-02T01:59:45;19.60;48.10
41644;DHT22;44236;48.098;11.582;2024-03-02T02:02:13;19.60;48.00
41644;DHT22;44236;48.098;11.582;2024-03-02T02:04:39;19.70;53.30
41644;DHT22;44236;48.098;11.582;2024-03-02T02:07:04;20.10;53.30
41644;DHT22;44236;48.098;11.582;2024-03-02T02:09:30;19.60;50.30
41644;DHT22;44236;48.098;11.582;2024-03-02T02:11:56;19.60;48.90
41644;DHT22;44236;48.098;11.582;2024-03-02T02:14:21;19.60;51.10
41644;DHT22;44236;48.098;11.582;2024-03-02T02:16:47;19.70;59.60
41644;DHT22;44236;48.098;11.582;2024-03-02T02:19:12;19.60;57.80
41644;DHT22;44236;48.098;11.582;2024-03-02T02:21:41;19.60;52.50
41644;DHT22;44236;48.098;11.582;2024-03-02T02:24:07;19.60;49.90
41644;DHT22;44236;48.098;11.582;2024-03-02T02:26:32;19.40;47.70
41644;DHT22;44236;48.098;11.582;2024-03-02T02:28:58;19.40;47.60
41644;DHT22;44236;48.098;11.582;2024-03-02T02:31:24;19.40;47.70
41644;DHT22;44236;48.098;11.582;2024-03-02T02:33:49;19.50;51.10
41644;DHT22;44236;48.098;11.582;2024-03-02T02:36:15;20.30;68.50
41644;DHT22;44236;48.098;11.582;2024-03-02T02:38:45;19.50;64.50
41644;DHT22;44236;48.098;11.582;2024-03-02T02:41:12;19.50;56.90
41644;DHT22;44236;48.098;11.582;2024-03-02T02:43:38;19.50;50.60
41644;DHT22;44236;48.098;11.582;2024-03-02T02:46:05;19.60;58.20
41644;DHT22;44236;48.098;11.582;2024-03-02T02:48:30;19.40;52.60
41644;DHT22;44236;48.098;11.582;2024-03-02T02:50:56;19.40;54.60
41644;DHT22;44236;48.098;11.582;2024-03-02T02:53:22;19.50;55.30
41644;DHT22;44236;48.098;11.582;2024-03-02T02:55:47;19.00;58.90
41644;DHT22;44236;48.098;11.582;2024-03-02T02:58:13;19.50;58.90
41644;DHT22;44236;48.098;11.582;2024-03-02T03:00:40;19.40;60.80
41644;DHT22;44236;48.098;11.582;2024-03-02T03:03:05;19.40;57.80
41644;DHT22;44236;48.098;11.582;2024-03-02T03:05:31;19.40;65.30
41644;DHT22;44236;48.098;11.582;2024-03-02T03:07:57;19.40;67.30
41644;DHT22;44236;48.098;11.582;2024-03-02T03:10:22;19.30;79.50
41644;DHT22;44236;48.098;11.582;2024-03-02T03:12:49;19.40;60.50
41644;DHT22;44236;48.098;11.582;2024-03-02T03:15:15;19.30;66.30
41644;DHT22;44236;48.098;11.582;2024-03-02T03:17:41;19.30;58.00
41644;DHT22;44236;48.098;11.582;2024-03-02T03:20:08;19.30;50.00
41644;DHT22;44236;48.098;11.582;2024-03-02T03:22:37;19.20;50.20
41644;DHT22;44236;48.098;11.582;2024-03-02T03:25:03;19.20;49.90
41644;DHT22;44236;48.098;11.582;2024-03-02T03:27:29;19.10;47.80
41644;DHT22;44236;48.098;11.582;2024-03-02T03:29:55;19.20;50.60
41644;DHT22;44236;48.098;11.582;2024-03-02T03:32:20;19.20;49.30
41644;DHT22;44236;48.098;11.582;2024-03-02T03:34:46;19.10;48.10
41644;DHT22;44236;48.098;11.582;2024-03-02T03:37:13;19.80;49.40
41644;DHT22;44236;48.098;11.582;2024-03-02T03:39:38;19.10;48.00
41644;DHT22;44236;48.098;11.582;2024-03-02T03:42:04;19.20;50.00
41644;DHT22;44236;48.098;11.582;2024-03-02T03:44:30;19.20;49.30
41644;DHT22;44236;48.098;11.582;2024-03-02T03:46:56;19.10;50.00
41644;DHT22;44236;48.098;11.582;2024-03-02T03:49:21;19.20;50.10
41644;DHT22;44236;48.098;11.582;2024-03-02T03:54:13;19.10;56.80
41644;DHT22;44236;48.098;11.582;2024-03-02T03:56:39;19.10;55.40
41644;DHT22;44236;48.098;11.582;2024-03-02T03:59:04;19.00;54.00
41644;DHT22;44236;48.098;11.582;2024-03-02T04:01:30;19.10;54.30
41644;DHT22;44236;48.098;11.582;2024-03-02T04:03:57;19.00;53.70
41644;DHT22;44236;48.098;11.582;2024-03-02T04:06:23;19.00;54.10
41644;DHT22;44236;48.098;11.582;2024-03-02T04:08:48;19.00;54.50
41644;DHT22;44236;48.098;11.582;2024-03-02T04:11:14;19.00;54.50
41644;DHT22;44236;48.098;11.582;2024-03-02T04:13:39;19.00;54.30
41644;DHT22;44236;48.098;11.582;2024-03-02T04:16:05;19.00;54.40
41644;DHT22;44236;48.098;11.582;2024-03-02T04:18:31;19.00;55.60
41644;DHT22;44236;48.098;11.582;2024-03-02T04:20:58;19.00;56.60
41644;DHT22;44236;48.098;11.582;2024-03-02T04:23:25;19.00;57.30
41644;DHT22;44236;48.098;11.582;2024-03-02T04:25:50;19.00;62.60
41644;DHT22;44236;48.098;11.582;2024-03-02T04:28:16;18.90;64.30
41644;DHT22;44236;48.098;11.582;2024-03-02T04:30:42;19.00;70.20
41644;DHT22;44236;48.098;11.582;2024-03-02T04:33:08;19.00;69.40
41644;DHT22;44236;48.098;11.582;2024-03-02T04:35:35;18.90;73.90
41644;DHT22;44236;48.098;11.582;2024-03-02T04:38:01;18.90;73.70
41644;DHT22;44236;48.098;11.582;2024-03-02T04:40:27;18.90;80.80
41644;DHT22;44236;48.098;11.582;2024-03-02T04:42:52;18.90;72.60
41644;DHT22;44236;48.098;11.582;2024-03-02T04:45:18;18.70;69.40
41644;DHT22;44236;48.098;11.582;2024-03-02T04:47:44;18.90;64.70
41644;DHT22;44236;48.098;11.582;2024-03-02T04:50:09;18.90;60.80
41644;DHT22;44236;48.098;11.582;2024-03-02T04:52:35;18.90;64.70
41644;DHT22;44236;48.098;11.582;2024-03-02T04:55:01;18.90;64.80
41644;DHT22;44236;48.098;11.582;2024-03-02T04:58:00;18.80;69.90
41644;DHT22;44236;48.098;11.582;2024-03-02T05:00:26;18.90;72.20
41644;DHT22;44236;48.098;11.582;2024-03-02T05:02:51;18.80;64.90
41644;DHT22;44236;48.098;11.582;2024-03-02T05:05:17;18.90;57.80
41644;DHT22;44236;48.098;11.582;2024-03-02T05:07:43;18.80;70.50
41644;DHT22;44236;48.098;11.582;2024-03-02T05:10:10;18.80;71.70
41644;DHT22;44236;48.098;11.582;2024-03-02T05:12:37;18.90;67.30
41644;DHT22;44236;48.098;11.582;2024-03-02T05:15:09;19.00;55.30
41644;DHT22;44236;48.098;11.582;2024-03-02T05:17:36;18.90;68.30
41644;DHT22;44236;48.098;11.582;2024-03-02T05:20:02;18.90;67.60
41644;DHT22;44236;48.098;11.582;2024-03-02T05:22:29;18.90;78.70
41644;DHT22;44236;48.098;11.582;2024-03-02T05:24:54;19.00;71.10
41644;DHT22;44236;48.098;11.582;2024-03-02T05:27:20;19.00;63.80
41644;DHT22;44236;48.098;11.582;2024-03-02T05:29:46;19.10;66.00
41644;DHT22;44236;48.098;11.582;2024-03-02T05:32:12;19.00;69.00
41644;DHT22;44236;48.098;11.582;2024-03-02T05:34:38;19.00;72.40
41644;DHT22;44236;48.098;11.582;2024-03-02T05:37:03;19.10;70.60
41644;DHT22;44236;48.098;11.582;2024-03-02T05:39:29;19.00;81.10
41644;DHT22;44236;48.098;11.582;2024-03-02T05:41:54;19.20;66.60
41644;DHT22;44236;48.098;11.582;2024-03-02T05:44:20;19.10;63.70
41644;DHT22;44236;48.098;11.582;2024-03-02T05:46:46;19.10;77.20
41644;DHT22;44236;48.098;11.582;2024-03-02T05:49:12;19.10;56.00
41644;DHT22;44236;48.098;11.582;2024-03-02T05:51:37;19.20;63.60
41644;DHT22;44236;48.098;11.582;2024-03-02T05:54:03;19.20;59.40
41644;DHT22;44236;48.098;11.582;2024-03-02T05:56:29;19.20;59.10
41644;DHT22;44236;48.098;11.582;2024-03-02T05:58:54;19.30;65.40
41644;DHT22;44236;48.098;11.582;2024-03-02T06:01:47;19.10;67.10
41644;DHT22;44236;48.098;11.582;2024-03-02T06:04:14;19.30;66.50
41644;DHT22;44236;48.098;11.582;2024-03-02T06:06:40;19.30;62.30
41644;DHT22;44236;48.098;11.582;2024-03-02T06:09:06;19.30;55.70
41644;DHT22;44236;48.098;11.582;2024-03-02T06:11:41;19.40;63.60
41644;DHT22;44236;48.098;11.582;2024-03-02T06:14:07;19.30;64.50
41644;DHT22;44236;48.098;11.582;2024-03-02T06:16:34;19.30;70.10
41644;DHT22;44236;48.098;11.582;2024-03-02T06:19:01;19.30;66.30
41644;DHT22;44236;48.098;11.582;2024-03-02T06:21:27;19.40;62.40
41644;DHT22;44236;48.098;11.582;2024-03-02T06:23:53;19.40;69.50
41644;DHT22;44236;48.098;11.582;2024-03-02T06:26:19;19.40;74.00
41644;DHT22;44236;48.098;11.582;2024-03-02T06:28:45;19.40;63.30
41644;DHT22;44236;48.098;11.582;2024-03-02T06:31:11;19.40;64.00
41644;DHT22;44236;48.098;11.582;2024-03-02T06:33:37;19.40;63.70
41644;DHT22;44236;48.098;11.582;2024-03-02T06:36:03;19.40;63.80
41644;DHT22;44236;48.098;11.582;2024-03-02T06:38:29;19.40;64.10
41644;DHT22;44236;48.098;11.582;2024-03-02T06:40:57;19.40;63.10
41644;DHT22;44236;48.098;11.582;2024-03-02T06:43:23;19.40;64.20
41644;DHT22;44236;48.098;11.582;2024-03-02T06:45:52;19.50;64.90
41644;DHT22;44236;48.098;11.582;2024-03-02T06:48:18;19.50;65.40
41644;DHT22;44236;48.098;11.582;2024-03-02T06:50:49;19.50;65.10
41644;DHT22;44236;48.098;11.582;2024-03-02T06:53:16;19.40;46.30
41644;DHT22;44236;48.098;11.582;2024-03-02T06:55:43;19.50;54.10
41644;DHT22;44236;48.098;11.582;2024-03-02T06:58:11;19.70;53.30
41644;DHT22;44236;48.098;11.582;2024-03-02T07:00:36;19.60;55.60
41644;DHT22;44236;48.098;11.582;2024-03-02T07:03:02;19.60;55.70
41644;DHT22;44236;48.098;11.582;2024-03-02T07:05:30;19.40;50.70
41644;DHT22;44236;48.098;11.582;2024-03-02T07:07:55;19.60;52.00
41644;DHT22;44236;48.098;11.582;2024-03-02T07:10:21;19.60;49.40
41644;DHT22;44236;48.098;11.582;2024-03-02T07:12:46;19.60;48.80
41644;DHT22;44236;48.098;11.582;2024-03-02T07:15:12;19.60;48.40
41644;DHT22;44236;48.098;11.582;2024-03-02T07:17:55;19.60;48.60
41644;DHT22;44236;48.098;11.582;2024-03-02T07:20:21;19.60;48.40
41644;DHT22;44236;48.098;11.582;2024-03-02T07:22:47;19.60;54.20
41644;DHT22;44236;48.098;11.582;2024-03-02T07:25:12;19.60;47.50
41644;DHT22;44236;48.098;11.582;2024-03-02T07:27:39;19.60;46.80
41644;DHT22;44236;48.098;11.582;2024-03-02T07:30:05;19.60;47.00
41644;DHT22;44236;48.098;11.582;2024-03-02T07:32:31;19.60;47.10
41644;DHT22;44236;48.098;11.582;2024-03-02T07:34:57;19.60;47.60
41644;DHT22;44236;48.098;11.582;2024-03-02T07:37:26;19.60;47.30
41644;DHT22;44236;48.098;11.582;2024-03-02T07:39:52;18.40;46.30
41644;DHT22;44236;48.098;11.582;2024-03-02T07:42:17;19.60;47.30
41644;DHT22;44236;48.098;11.582;2024-03-02T07:44:44;19.60;47.00
41644;DHT22;44236;48.098;11.582;2024-03-02T07:47:11;19.60;47.30
41644;DHT22;44236;48.098;11.582;2024-03-02T07:49:37;19.60;47.10
41644;DHT22;44236;48.098;11.582;2024-03-02T07:52:02;19.80;56.50
41644;DHT22;44236;48.098;11.582;2024-03-02T07:54:28;19.60;47.40
41644;DHT22;44236;48.098;11.582;2024-03-02T07:56:54;19.40;46.10
41644;DHT22;44236;48.098;11.582;2024-03-02T07:59:19;19.30;47.10
41644;DHT22;44236;48.098;11.582;2024-03-02T08:01:48;19.30;47.00
41644;DHT22;44236;48.098;11.582;2024-03-02T08:04:14;19.40;47.00
41644;DHT22;44236;48.098;11.582;2024-03-02T08:06:39;19.40;47.00
41644;DHT22;44236;48.098;11.582;2024-03-02T08:09:05;19.40;47.50
41644;DHT22;44236;48.098;11.582;2024-03-02T08:11:35;19.40;47.10
41644;DHT22;44236;48.098;11.582;2024-03-02T08:14:01;19.50;46.90
41644;DHT22;44236;48.098;11.582;2024-03-02T08:16:27;19.50;47.10
41644;DHT22;44236;48.098;11.582;2024-03-02T08:18:53;19.50;46.80
41644;DHT22;44236;48.098;11.582;2024-03-02T08:21:19;19.50;46.70
41644;DHT22;44236;48.098;11.582;2024-03-02T08:23:45;19.70;52.20
41644;DHT22;44236;48.098;11.582;2024-03-02T08:26:11;19.60;47.00
41644;DHT22;44236;48.098;11.582;2024-03-02T08:28:37;19.60;47.00
41644;DHT22;44236;48.098;11.582;2024-03-02T08:31:03;19.60;47.20
41644;DHT22;44236;48.098;11.582;2024-03-02T08:33:29;19.60;48.00
41644;DHT22;44236;48.098;11.582;2024-03-02T08:35:55;19.60;47.20
41644;DHT22;44236;48.098;11.582;2024-03-02T08:38:21;19.60;48.70
41644;DHT22;44236;48.098;11.582;2024-03-02T08:40:47;19.60;47.20
41644;DHT22;44236;48.098;11.582;2024-03-02T08:43:16;19.10;45.30
41644;DHT22;44236;48.098;11.582;2024-03-02T08:45:42;18.70;45.50
41644;DHT22;44236;48.098;11.582;2024-03-02T08:48:08;18.10;46.40
41644;DHT22;44236;48.098;11.582;2024-03-02T08:50:34;17.40;46.80
41644;DHT22;44236;48.098;11.582;2024-03-02T08:53:00;17.00;48.30
41644;DHT22;44236;48.098;11.582;2024-03-02T08:55:26;17.00;48.50
41644;DHT22;44236;48.098;11.582;2024-03-02T08:57:52;17.20;48.90
41644;DHT22;44236;48.098;11.582;2024-03-02T09:00:18;17.40;48.80
41644;DHT22;44236;48.098;11.582;2024-03-02T09:02:44;17.70;48.70
41644;DHT22;44236;48.098;11.582;2024-03-02T09:05:10;17.80;48.50
41644;DHT22;44236;48.098;11.582;2024-03-02T09:07:36;18.10;48.90
41644;DHT22;44236;48.098;11.582;2024-03-02T09:10:01;18.20;48.00
41644;DHT22;44236;48.098;11.582;2024-03-02T09:12:27;18.30;48.10
41644;DHT22;44236;48.098;11.582;2024-03-02T09:14:53;18.40;48.80
41644;DHT22;44236;48.098;11.582;2024-03-02T09:17:18;18.40;48.00
41644;DHT22;44236;48.098;11.582;2024-03-02T09:19:44;18.60;48.00
41644;DHT22;44236;48.098;11.582;2024-03-02T09:22:09;18.60;47.70
41644;DHT22;44236;48.098;11.582;2024-03-02T09:24:35;18.70;48.40
41644;DHT22;44236;48.098;11.582;2024-03-02T09:27:01;18.80;48.40
41644;DHT22;44236;48.098;11.582;2024-03-02T09:29:26;18.80;47.60
41644;DHT22;44236;48.098;11.582;2024-03-02T09:31:52;18.80;47.90
41644;DHT22;44236;48.098;11.582;2024-03-02T09:34:18;18.90;48.30
41644;DHT22;44236;48.098;11.582;2024-03-02T09:36:43;18.90;48.20
41644;DHT22;44236;48.098;11.582;2024-03-02T09:39:10;18.90;47.70
41644;DHT22;44236;48.098;11.582;2024-03-02T09:41:38;18.90;48.30
41644;DHT22;44236;48.098;11.582;2024-03-02T09:44:04;18.90;47.80
41644;DHT22;44236;48.098;11.582;2024-03-02T09:46:30;19.10;48.60
41644;DHT22;44236;48.098;11.582;2024-03-02T09:48:56;19.00;49.10
41644;DHT22;44236;48.098;11.582;2024-03-02T09:51:23;19.00;49.20
41644;DHT22;44236;48.098;11.582;2024-03-02T09:53:49;19.00;48.40
41644;DHT22;44236;48.098;11.582;2024-03-02T09:56:15;19.10;49.10
41644;DHT22;44236;48.098;11.582;2024-03-02T09:58:41;19.10;50.00
41644;DHT22;44236;48.098;11.582;2024-03-02T10:01:08;19.20;48.20
41644;DHT22;44236;48.098;11.582;2024-03-02T10:03:36;19.20;49.40
41644;DHT22;44236;48.098;11.582;2024-03-02T10:08:47;19.30;49.70
41644;DHT22;44236;48.098;11.582;2024-03-02T10:11:32;19.30;48.30
41644;DHT22;44236;48.098;11.582;2024-03-02T10:14:10;19.30;50.80
41644;DHT22;44236;48.098;11.582;2024-03-02T10:16:45;19.30;50.60
41644;DHT22;44236;48.098;11.582;2024-03-02T10:19:17;19.40;49.80
41644;DHT22;44236;48.098;11.582;2024-03-02T10:21:44;19.40;49.00
41644;DHT22;44236;48.098;11.582;2024-03-02T10:24:10;19.40;49.90
41644;DHT22;44236;48.098;11.582;2024-03-02T10:26:36;19.40;49.20
41644;DHT22;44236;48.098;11.582;2024-03-02T10:29:01;19.40;49.20
41644;DHT22;44236;48.098;11.582;2024-03-02T10:31:28;19.40;49.50
41644;DHT22;44236;48.098;11.582;2024-03-02T10:33:57;19.40;49.20
41644;DHT22;44236;48.098;11.582;2024-03-02T10:36:23;19.50;48.40
41644;DHT22;44236;48.098;11.582;2024-03-02T10:38:51;19.50;48.30
41644;DHT22;44236;48.098;11.582;2024-03-02T10:41:23;19.50;48.30
41644;DHT22;44236;48.098;11.582;2024-03-02T10:43:53;19.50;48.70
41644;DHT22;44236;48.098;11.582;2024-03-02T10:46:28;19.50;48.90
41644;DHT22;44236;48.098;11.582;2024-03-02T10:48:57;19.60;50.40
41644;DHT22;44236;48.098;11.582;2024-03-02T10:51:27;19.60;49.70
41644;DHT22;44236;48.098;11.582;2024-03-02T10:53:54;19.60;49.20
41644;DHT22;44236;48.098;11.582;2024-03-02T10:56:34;19.60;50.60
41644;DHT22;44236;48.098;11.582;2024-03-02T10:59:28;19.60;50.20
41644;DHT22;44236;48.098;11.582;2024-03-02T11:01:58;19.60;50.00
41644;DHT22;44236;48.098;11.582;2024-03-02T11:04:28;19.60;50.10
41644;DHT22;44236;48.098;11.582;2024-03-02T11:07:12;19.60;50.00
41644;DHT22;44236;48.098;11.582;2024-03-02T11:09:44;19.60;49.70
41644;DHT22;44236;48.098;11.582;2024-03-02T11:12:19;19.60;49.30
41644;DHT22;44236;48.098;11.582;2024-03-02T11:14:48;19.60;49.80
41644;DHT22;44236;48.098;11.582;2024-03-02T11:17:17;19.70;49.80
41644;DHT22;44236;48.098;11.582;2024-03-02T11:19:44;19.70;50.30
41644;DHT22;44236;48.098;11.582;2024-03-02T11:22:11;19.70;51.10
41644;DHT22;44236;48.098;11.582;2024-03-02T11:24:37;19.50;45.10
41644;DHT22;44236;48.098;11.582;2024-03-02T11:27:04;19.30;46.00
41644;DHT22;44236;48.098;11.582;2024-03-02T11:32:03;19.20;48.20
41644;DHT22;44236;48.098;11.582;2024-03-02T11:34:34;19.30;48.70
41644;DHT22;44236;48.098;11.582;2024-03-02T11:37:01;19.40;48.70
41644;DHT22;44236;48.098;11.582;2024-03-02T11:39:28;19.40;49.30
41644;DHT22;44236;48.098;11.582;2024-03-02T11:41:55;19.80;48.80
41644;DHT22;44236;48.098;11.582;2024-03-02T11:44:21;19.50;49.20
41644;DHT22;44236;48.098;11.582;2024-03-02T11:46:59;19.60;48.70
41644;DHT22;44236;48.098;11.582;2024-03-02T11:52:06;19.60;48.80
41644;DHT22;44236;48.098;11.582;2024-03-02T11:54:33;21.00;49.70
41644;DHT22;44236;48.098;11.582;2024-03-02T11:57:02;19.70;48.80
41644;DHT22;44236;48.098;11.582;2024-03-02T11:59:29;19.70;49.10
41644;DHT22;44236;48.098;11.582;2024-03-02T12:01:55;19.80;48.90
41644;DHT22;44236;48.098;11.582;2024-03-02T12:04:22;19.80;49.20
41644;DHT22;44236;48.098;11.582;2024-03-02T12:06:55;19.80;48.80
41644;DHT22;44236;48.098;11.582;2024-03-02T12:09:21;19.80;49.00
41644;DHT22;44236;48.098;11.582;2024-03-02T12:11:47;19.80;48.30
41644;DHT22;44236;48.098;11.582;2024-03-02T12:14:13;19.80;48.70
41644;DHT22;44236;48.098;11.582;2024-03-02T12:16:38;19.80;48.40
41644;DHT22;44236;48.098;11.582;2024-03-02T12:19:05;19.90;48.80
41644;DHT22;44236;48.098;11.582;2024-03-02T12:21:31;19.90;49.90
41644;DHT22;44236;48.098;11.582;2024-03-02T12:23:57;19.90;51.20
41644;DHT22;44236;48.098;11.582;2024-03-02T12:26:23;19.90;48.90
41644;DHT22;44236;48.098;11.582;2024-03-02T12:28:49;19.90;48.90
41644;DHT22;44236;48.098;11.582;2024-03-02T12:31:14;19.90;48.90
41644;DHT22;44236;48.098;11.582;2024-03-02T12:33:41;19.90;49.30
41644;DHT22;44236;48.098;11.582;2024-03-02T12:36:10;19.90;49.00
41644;DHT22;44236;48.098;11.582;2024-03-02T12:38:37;19.90;48.90
41644;DHT22;44236;48.098;11.582;2024-03-02T12:41:03;20.00;49.30
41644;DHT22;44236;48.098;11.582;2024-03-02T12:43:31;20.00;49.30
41644;DHT22;44236;48.098;11.582;2024-03-02T12:46:00;18.90;48.80
41644;DHT22;44236;48.098;11.582;2024-03-02T12:48:25;20.00;49.40
41644;DHT22;44236;48.098;11.582;2024-03-02T12:50:52;20.00;49.60
41644;DHT22;44236;48.098;11.582;2024-03-02T12:53:17;20.00;49.40
41644;DHT22;44236;48.098;11.582;2024-03-02T12:55:43;20.00;50.60
41644;DHT22;44236;48.098;11.582;2024-03-02T12:58:18;20.00;50.30
41644;DHT22;44236;48.098;11.582;2024-03-02T13:00:44;20.10;49.80
41644;DHT22;44236;48.098;11.582;2024-03-02T13:03:09;20.10;49.80
41644;DHT22;44236;48.098;11.582;2024-03-02T13:05:35;20.10;51.00
41644;DHT22;44236;48.098;11.582;2024-03-02T13:08:00;20.10;48.80
41644;DHT22;44236;48.098;11.582;2024-03-02T13:10:28;20.10;48.60
41644;DHT22;44236;48.098;11.582;2024-03-02T13:12:55;20.00;46.80
41644;DHT22;44236;48.098;11.582;2024-03-02T13:15:21;20.00;45.90
41644;DHT22;44236;48.098;11.582;2024-03-02T13:17:46;19.90;45.30
41644;DHT22;44236;48.098;11.582;2024-03-02T13:20:12;19.90;44.80
41644;DHT22;44236;48.098;11.582;2024-03-02T13:22:39;19.80;44.90
41644;DHT22;44236;48.098;11.582;2024-03-02T13:25:05;19.70;44.40
41644;DHT22;44236;48.098;11.582;2024-03-02T13:27:31;19.60;43.70
41644;DHT22;44236;48.098;11.582;2024-03-02T13:29:58;19.40;42.70
41644;DHT22;44236;48.098;11.582;2024-03-02T13:32:24;19.30;44.40
41644;DHT22;44236;48.098;11.582;2024-03-02T13:34:51;19.40;45.70
41644;DHT22;44236;48.098;11.582;2024-03-02T13:37:17;19.90;46.90
41644;DHT22;44236;48.098;11.582;2024-03-02T13:39:42;19.50;47.20
41644;DHT22;44236;48.098;11.582;2024-03-02T13:42:11;19.50;47.70
41644;DHT22;44236;48.098;11.582;2024-03-02T13:44:39;19.60;48.10
41644;DHT22;44236;48.098;11.582;2024-03-02T13:47:05;19.70;48.40
41644;DHT22;44236;48.098;11.582;2024-03-02T13:49:31;19.60;48.00
41644;DHT22;44236;48.098;11.582;2024-03-02T13:52:05;19.70;48.00
41644;DHT22;44236;48.098;11.582;2024-03-02T13:54:45;19.70;48.50
41644;DHT22;44236;48.098;11.582;2024-03-02T13:57:11;19.80;48.70
41644;DHT22;44236;48.098;11.582;2024-03-02T13:59:38;19.80;48.70
41644;DHT22;44236;48.098;11.582;2024-03-02T14:02:05;19.80;48.70
41644;DHT22;44236;48.098;11.582;2024-03-02T14:04:34;19.80;48.90
41644;DHT22;44236;48.098;11.582;2024-03-02T14:07:00;19.90;48.90
41644;DHT22;44236;48.098;11.582;2024-03-02T14:09:26;19.80;49.00
41644;DHT22;44236;48.098;11.582;2024-03-02T14:11:52;19.90;49.60
41644;DHT22;44236;48.098;11.582;2024-03-02T14:14:18;19.90;49.20
41644;DHT22;44236;48.098;11.582;2024-03-02T14:16:44;19.90;49.30
41644;DHT22;44236;48.098;11.582;2024-03-02T14:19:10;19.90;49.40
41644;DHT22;44236;48.098;11.582;2024-03-02T14:21:37;19.90;49.40
41644;DHT22;44236;48.098;11.582;2024-03-02T14:24:03;19.90;49.00
41644;DHT22;44236;48.098;11.582;2024-03-02T14:26:29;19.90;49.40
41644;DHT22;44236;48.098;11.582;2024-03-02T14:28:55;20.00;49.80
41644;DHT22;44236;48.098;11.582;2024-03-02T14:31:20;20.00;50.00
41644;DHT22;44236;48.098;11.582;2024-03-02T14:33:46;20.10;51.80
41644;DHT22;44236;48.098;11.582;2024-03-02T14:36:12;20.00;50.30
41644;DHT22;44236;48.098;11.582;2024-03-02T14:38:38;20.00;49.90
41644;DHT22;44236;48.098;11.582;2024-03-02T14:41:04;20.10;50.80
41644;DHT22;44236;48.098;11.582;2024-03-02T14:43:30;20.00;51.90
41644;DHT22;44236;48.098;11.582;2024-03-02T14:45:56;20.10;50.40
41644;DHT22;44236;48.098;11.582;2024-03-02T14:48:22;20.10;50.70
41644;DHT22;44236;48.098;11.582;2024-03-02T14:50:48;20.00;51.20
41644;DHT22;44236;48.098;11.582;2024-03-02T14:53:14;20.10;51.60
41644;DHT22;44236;48.098;11.582;2024-03-02T14:55:40;20.10;50.90
41644;DHT22;44236;48.098;11.582;2024-03-02T14:58:05;20.10;52.10
41644;DHT22;44236;48.098;11.582;2024-03-02T15:00:31;20.10;51.10
41644;DHT22;44236;48.098;11.582;2024-03-02T15:02:56;20.10;51.50
41644;DHT22;44236;48.098;11.582;2024-03-02T15:05:22;20.10;50.60
41644;DHT22;44236;48.098;11.582;2024-03-02T15:07:48;20.10;50.40
41644;DHT22;44236;48.098;11.582;2024-03-02T15:10:13;20.10;50.90
41644;DHT22;44236;48.098;11.582;2024-03-02T15:12:39;20.10;51.50
41644;DHT22;44236;48.098;11.582;2024-03-02T15:15:05;20.10;51.30
41644;DHT22;44236;48.098;11.582;2024-03-02T15:17:31;20.10;51.90
41644;DHT22;44236;48.098;11.582;2024-03-02T15:19:56;20.10;52.00
41644;DHT22;44236;48.098;11.582;2024-03-02T15:22:22;20.10;51.80
41644;DHT22;44236;48.098;11.582;2024-03-02T15:24:48;20.10;51.80
41644;DHT22;44236;48.098;11.582;2024-03-02T15:27:13;20.10;52.10
41644;DHT22;44236;48.098;11.582;2024-03-02T15:29:39;20.10;52.30